Time;durP1;ratioP1;P1;durP2;ratioP2;P2;SDS_P1;SDS_P2;PMS_P1;PMS_P2;Temp;Humidity;BMP_temperature;BMP_pressure;BME280_temperature;BME280_humidity;BME280_pressure;Samples;Min_cycle;Max_cycle;Signal;HPM_P1;HPM_P2
2023/05/06 00:02:11;;;;;;;22.10;13.43;;;14.20;83.10;;;13.59;66.80;100632.38;5069515;28;20049;-80
2023/05/06 00:04:38;;;;;;;25.58;13.90;;;14.20;83.20;;;13.59;66.92;100635.84;5067962;28;20055;-81
2023/05/06 00:07:05;;;;;;;21.58;13.75;;;14.20;83.30;;;13.62;66.88;100631.91;5069972;28;20120;-80
2023/05/06 00:09:34;;;;;;;23.73;15.30;;;14.20;83.30;;;13.61;67.21;100631.06;5067303;28;20107;-80
2023/05/06 00:12:01;;;;;;;31.70;17.08;;;14.20;83.60;;;13.63;67.47;100630.88;5069325;28;20044;-81
2023/05/06 00:14:29;;;;;;;24.83;15.77;;;14.20;83.70;;;13.63;67.44;100625.50;5068893;28;20078;-80
2023/05/06 00:16:56;;;;;;;23.58;15.18;;;14.20;83.90;;;13.62;67.50;100624.69;5069302;28;20048;-80
2023/05/06 00:19:23;;;;;;;28.38;16.23;;;14.30;84.00;;;13.64;67.66;100624.47;5069810;28;20118;-80
2023/05/06 00:21:50;;;;;;;25.17;15.57;;;14.30;84.00;;;13.64;67.89;100624.47;5068785;28;20124;-80
2023/05/06 00:24:18;;;;;;;25.58;16.20;;;14.30;84.30;;;13.65;67.83;100618.03;5067906;28;20063;-81
2023/05/06 00:26:46;;;;;;;23.20;15.40;;;14.30;84.60;;;13.67;67.96;100615.16;5072486;28;20062;-80
2023/05/06 00:29:14;;;;;;;24.20;16.52;;;14.30;84.40;;;13.67;67.95;100615.16;5066248;28;20037;-80
2023/05/06 00:31:41;;;;;;;24.77;16.13;;;14.30;84.40;;;13.67;68.14;100612.47;5051521;28;20072;-81
2023/05/06 00:34:09;;;;;;;26.35;17.20;;;14.30;84.70;;;13.66;68.13;100617.00;5048001;28;20082;-81
2023/05/06 00:36:36;;;;;;;25.13;16.77;;;14.30;84.40;;;13.64;68.17;100611.06;5041203;28;20570;-79
2023/05/06 00:39:04;;;;;;;25.98;17.08;;;14.30;84.50;;;13.64;68.24;100617.22;5062491;28;20045;-79
2023/05/06 00:41:32;;;;;;;24.85;17.15;;;14.30;84.70;;;13.64;68.32;100605.69;5068959;28;20067;-80
2023/05/06 00:44:01;;;;;;;23.40;16.42;;;14.20;84.50;;;13.66;67.99;100603.59;5049946;28;20161;-81
2023/05/06 00:46:28;;;;;;;23.08;16.35;;;14.30;84.50;;;13.65;68.23;100602.78;5065189;28;20053;-81
2023/05/06 00:48:57;;;;;;;21.17;15.35;;;14.30;84.70;;;13.65;68.09;100604.66;5054543;28;20037;-81
2023/05/06 00:53:52;;;;;;;22.30;15.00;;;14.30;84.50;;;13.64;68.05;100605.69;5026149;28;20974;-76
2023/05/06 00:56:20;;;;;;;22.92;15.60;;;14.30;84.50;;;13.62;68.08;100599.75;5026408;28;20132;-75
2023/05/06 00:58:47;;;;;;;27.17;15.25;;;14.30;84.60;;;13.61;67.91;100606.94;5027444;28;20133;-75
2023/05/06 01:01:16;;;;;;;19.55;14.88;;;14.30;84.50;;;13.60;67.98;100605.31;5022379;28;20508;-75
2023/05/06 01:03:43;;;;;;;24.35;15.93;;;14.30;84.60;;;13.61;68.14;100606.13;4990602;28;20073;-75
2023/05/06 01:06:23;;;;;;;21.60;15.52;;;14.30;84.50;;;13.59;68.15;100600.19;4991502;28;20145;-75
2023/05/06 01:08:57;;;;;;;21.83;14.65;;;14.20;84.60;;;13.57;68.29;100602.31;5002224;28;20132;-75
2023/05/06 01:11:37;;;;;;;25.52;15.18;;;14.20;84.70;;;13.57;68.16;100603.13;5001568;28;20050;-75
2023/05/06 01:14:17;;;;;;;22.10;15.20;;;14.20;84.50;;;13.56;68.12;100600.66;4997721;28;20065;-75
2023/05/06 01:16:52;;;;;;;21.35;14.23;;;14.20;84.60;;;13.54;68.01;100600.06;5007107;28;20070;-75
2023/05/06 01:19:40;;;;;;;20.73;14.23;;;14.20;84.40;;;13.52;67.96;100596.81;4986512;28;20037;-75
2023/05/06 01:22:10;;;;;;;27.90;14.63;;;14.20;84.30;;;13.51;68.12;100598.66;4986843;28;20069;-75
2023/05/06 01:24:41;;;;;;;18.55;13.27;;;14.20;84.40;;;13.49;68.00;100595.38;4991309;28;20052;-75
2023/05/06 01:27:10;;;;;;;23.25;14.30;;;14.20;84.50;;;13.49;67.95;100592.72;4990891;28;20096;-75
2023/05/06 01:29:42;;;;;;;18.63;13.38;;;14.20;84.50;;;13.46;67.92;100590.47;4991205;28;20133;-75
2023/05/06 01:32:30;;;;;;;;;;;14.10;84.50;;;13.46;67.77;100589.66;4990961;28;20084;-75
2023/05/06 01:35:12;;;;;;;20.30;14.38;;;14.10;84.30;;;13.42;67.63;100592.00;4983055;28;19925;-75
2023/05/06 01:37:47;;;;;;;24.15;14.57;;;14.10;84.30;;;13.39;67.68;100582.53;5008303;28;20057;-75
2023/05/06 01:40:17;;;;;;;39.20;13.40;;;14.10;84.50;;;13.37;67.63;100592.69;4990469;28;20077;-75
2023/05/06 01:42:49;;;;;;;16.70;12.83;;;14.00;84.30;;;13.31;67.78;100585.53;4990137;28;20124;-75
2023/05/06 01:45:19;;;;;;;19.02;12.45;;;14.00;84.50;;;13.30;67.75;100589.25;5000738;28;20050;-75
2023/05/06 01:47:48;;;;;;;19.83;12.13;;;14.00;84.50;;;13.29;67.65;100587.63;5008733;28;20046;-75
2023/05/06 01:50:15;;;;;;;20.75;13.23;;;14.00;84.50;;;13.27;67.80;100587.00;4988667;28;20037;-75
2023/05/06 01:52:42;;;;;;;27.83;12.73;;;13.90;84.50;;;13.26;67.65;100585.38;4984234;28;20129;-75
2023/05/06 01:55:10;;;;;;;18.08;11.93;;;13.90;84.40;;;13.24;67.45;100592.03;4983674;28;20042;-75
2023/05/06 01:57:38;;;;;;;15.30;11.38;;;13.90;84.50;;;13.21;67.89;100589.75;4984679;28;20070;-75
2023/05/06 02:00:08;;;;;;;16.75;12.10;;;13.90;84.50;;;13.21;67.76;100595.94;5000207;28;20108;-75
2023/05/06 02:02:39;;;;;;;16.52;12.30;;;13.90;84.50;;;13.20;67.63;100599.66;5007429;28;20056;-75
2023/05/06 02:05:08;;;;;;;15.45;11.40;;;13.80;84.30;;;13.19;67.17;100586.50;4988258;28;20057;-75
2023/05/06 02:07:39;;;;;;;14.82;10.13;;;13.80;84.00;;;13.15;67.16;100594.97;5007934;28;20053;-75
2023/05/06 02:10:08;;;;;;;15.70;10.73;;;13.80;84.00;;;13.12;67.27;100591.91;4980710;28;20050;-75
2023/05/06 02:12:38;;;;;;;12.77;9.82;;;13.80;84.00;;;13.10;67.13;100594.00;4990102;28;20045;-75
2023/05/06 02:15:07;;;;;;;12.75;9.60;;;13.80;83.90;;;13.07;66.96;100589.91;5007586;28;20049;-75
2023/05/06 02:17:35;;;;;;;42.05;10.10;;;13.70;83.80;;;13.04;67.06;100593.06;4996122;28;20097;-75
2023/05/06 02:20:03;;;;;;;11.80;8.80;;;13.80;83.70;;;13.02;67.04;100596.97;5009628;28;20046;-75
2023/05/06 02:22:30;;;;;;;12.85;10.23;;;13.70;83.70;;;12.98;67.02;100590.44;4988753;28;20108;-75
2023/05/06 02:24:57;;;;;;;11.35;8.48;;;13.60;83.70;;;12.98;66.83;100595.78;4990484;28;20387;-73
2023/05/06 02:27:24;;;;;;;10.70;8.30;;;13.60;83.70;;;12.95;66.85;100590.91;4993382;28;20141;-76
2023/05/06 02:29:53;;;;;;;11.75;8.63;;;13.60;83.70;;;12.93;66.93;100598.31;4994120;28;20054;-75
2023/05/06 02:32:20;;;;;;;15.88;9.57;;;13.60;83.70;;;12.89;66.94;100592.63;5010744;28;20046;-75
2023/05/06 02:34:47;;;;;;;10.07;7.57;;;13.60;83.80;;;12.87;66.91;100600.03;4994570;28;20061;-75
2023/05/06 02:37:15;;;;;;;17.95;9.68;;;13.50;83.80;;;12.84;66.79;100595.97;4994184;28;20136;-76
2023/05/06 02:39:42;;;;;;;12.13;8.50;;;13.50;83.90;;;12.83;66.92;100594.34;4993575;28;20052;-75
2023/05/06 02:42:09;;;;;;;10.88;8.50;;;13.50;83.90;;;12.81;67.21;100595.59;5009082;28;20088;-75
2023/05/06 02:44:36;;;;;;;13.70;9.00;;;13.50;84.20;;;12.80;67.33;100599.31;4993953;28;20407;-73
2023/05/06 02:47:05;;;;;;;28.70;9.75;;;13.50;84.20;;;12.77;67.51;100597.06;4993865;28;20077;-75
2023/05/06 02:49:32;;;;;;;18.45;9.07;;;13.40;84.30;;;12.75;67.58;100597.28;4993676;28;20044;-76
2023/05/06 02:51:59;;;;;;;18.98;9.30;;;13.40;84.40;;;12.73;67.51;100601.22;4996561;28;20108;-75
2023/05/06 02:54:27;;;;;;;10.57;8.15;;;13.40;84.40;;;12.70;67.34;100597.16;4992279;28;20509;-76
2023/05/06 02:56:54;;;;;;;14.98;9.50;;;13.40;84.10;;;12.68;67.20;100591.19;5011424;28;20042;-75
2023/05/06 02:59:22;;;;;;;33.80;10.32;;;13.40;84.10;;;12.67;67.33;100594.09;4986557;28;20042;-75
2023/05/06 03:01:49;;;;;;;30.83;11.05;;;13.40;84.30;;;12.65;67.33;100593.50;4989353;28;20049;-75
2023/05/06 03:04:18;;;;;;;12.80;9.52;;;13.30;84.10;;;12.65;67.17;100593.50;4977742;28;20161;-75
2023/05/06 03:06:45;;;;;;;12.07;8.90;;;13.30;84.10;;;12.63;67.28;100585.69;5001506;28;20046;-75
2023/05/06 03:09:14;;;;;;;15.75;9.70;;;13.30;84.20;;;12.61;67.22;100591.25;4993088;28;20045;-75
2023/05/06 03:11:41;;;;;;;16.88;9.32;;;13.30;84.10;;;12.60;67.39;100599.50;4987473;28;20050;-75
2023/05/06 03:14:08;;;;;;;12.20;8.23;;;13.30;84.20;;;12.56;67.05;100587.63;4987867;28;20448;-75
2023/05/06 03:16:36;;;;;;;10.23;7.70;;;13.20;83.70;;;12.54;66.59;100593.19;4993468;28;20081;-75
2023/05/06 03:19:03;;;;;;;12.77;8.50;;;13.20;83.40;;;12.51;66.42;100603.50;5005825;28;20046;-75
2023/05/06 03:21:32;;;;;;;11.55;8.07;;;13.20;83.30;;;12.48;66.22;100596.72;4991497;28;20079;-75
2023/05/06 03:23:59;;;;;;;14.95;8.40;;;13.20;83.20;;;12.46;66.04;100598.81;4991402;28;20050;-75
2023/05/06 03:26:29;;;;;;;16.08;9.63;;;13.10;83.10;;;12.44;66.17;100590.19;4992681;28;20041;-75
2023/05/06 03:28:57;;;;;;;10.77;7.95;;;13.10;83.30;;;12.40;66.21;100591.69;4982040;28;20566;-75
2023/05/06 03:31:25;;;;;;;12.60;8.63;;;13.00;83.30;;;12.38;66.29;100585.72;4991108;28;20053;-75
2023/05/06 03:33:53;;;;;;;12.55;8.77;;;13.10;83.20;;;12.35;66.18;100587.00;4990228;28;20469;-75
2023/05/06 03:36:22;;;;;;;11.18;8.52;;;13.00;83.30;;;12.35;66.42;100594.19;4992990;28;20080;-75
2023/05/06 03:38:54;;;;;;;;;;;13.00;83.50;;;12.32;66.37;100592.75;5002025;28;20069;-75
2023/05/06 03:41:22;;;;;;;10.93;7.85;;;13.00;83.50;;;12.29;66.26;100587.03;4999900;28;19932;-75
2023/05/06 03:43:50;;;;;;;10.65;8.05;;;13.00;83.40;;;12.27;66.24;100589.94;4991428;28;20042;-75
2023/05/06 03:46:19;;;;;;;12.45;8.45;;;12.90;83.40;;;12.26;66.03;100592.84;4990262;28;20049;-75
2023/05/06 03:48:47;;;;;;;14.23;8.98;;;12.90;83.10;;;12.23;66.32;100588.72;4991432;28;20050;-75
2023/05/06 03:51:17;;;;;;;11.45;8.32;;;12.90;83.50;;;12.22;66.20;100592.44;5000822;28;20046;-75
2023/05/06 03:53:44;;;;;;;11.63;8.52;;;12.90;83.40;;;12.20;66.25;100594.53;4981401;28;20137;-75
2023/05/06 03:56:13;;;;;;;13.25;9.07;;;12.80;83.40;;;12.19;66.30;100592.06;4986017;28;20073;-75
2023/05/06 03:58:40;;;;;;;13.23;9.43;;;12.80;83.30;;;12.18;66.17;100590.44;4990160;28;20065;-75
2023/05/06 04:01:10;;;;;;;12.30;8.63;;;12.80;83.40;;;12.16;66.13;100587.16;4982556;28;20521;-75
2023/05/06 04:03:38;;;;;;;13.32;9.20;;;12.80;83.30;;;12.15;66.02;100591.69;5007769;28;20053;-75
2023/05/06 04:06:06;;;;;;;12.90;9.48;;;12.80;83.30;;;12.13;66.28;100585.72;4991599;28;20153;-75
2023/05/06 04:08:33;;;;;;;14.68;10.02;;;12.80;83.40;;;12.11;66.38;100579.81;4990852;28;20042;-75
2023/05/06 04:11:05;;;;;;;15.00;9.82;;;12.80;83.30;;;12.11;66.44;100583.28;5002719;28;20064;-75
2023/05/06 04:13:35;;;;;;;14.70;9.88;;;12.80;83.50;;;12.11;66.03;100577.13;4986084;28;20129;-75
2023/05/06 04:16:06;;;;;;;14.13;9.05;;;12.80;83.30;;;12.11;66.20;100574.44;4992583;28;20360;-75
2023/05/06 04:18:38;;;;;;;14.00;8.30;;;12.80;83.50;;;12.13;66.22;100583.06;4990327;28;20063;-75
2023/05/06 04:21:10;;;;;;;12.77;8.48;;;12.80;83.50;;;12.13;66.44;100583.06;4995670;28;20667;-75
2023/05/06 04:23:40;;;;;;;14.35;9.07;;;12.80;83.60;;;12.12;66.33;100584.09;4989313;28;20502;-75
2023/05/06 04:26:08;;;;;;;14.07;8.82;;;12.80;83.50;;;12.14;66.31;100592.72;4990058;28;20050;-75
2023/05/06 04:28:39;;;;;;;14.38;9.00;;;12.70;83.70;;;12.14;66.59;100591.91;4991875;28;20076;-75
2023/05/06 04:31:09;;;;;;;14.20;8.98;;;12.80;83.70;;;12.14;66.50;100595.38;5008333;28;20050;-75
2023/05/06 04:33:42;;;;;;;16.33;9.05;;;12.80;83.90;;;12.13;66.48;100596.44;4992481;28;20054;-75
2023/05/06 04:36:14;;;;;;;12.95;8.75;;;12.80;83.70;;;12.11;66.50;100596.66;4991848;28;20128;-75
2023/05/06 04:38:51;;;;;;;14.45;9.30;;;12.80;83.70;;;12.10;66.48;100597.69;4992369;28;20052;-75
2023/05/06 04:41:19;;;;;;;14.77;8.55;;;12.80;83.70;;;12.11;66.74;100599.31;4990360;28;20041;-74
2023/05/06 04:43:48;;;;;;;12.23;8.32;;;12.80;83.90;;;12.13;66.44;100607.13;4992020;28;20045;-75
2023/05/06 04:46:21;;;;;;;12.63;8.60;;;12.80;83.80;;;12.15;66.67;100604.22;4981399;28;20054;-76
2023/05/06 04:48:49;;;;;;;11.52;8.27;;;12.80;83.90;;;12.17;66.68;100610.19;5003085;28;20061;-74
2023/05/06 04:51:18;;;;;;;11.38;8.27;;;12.80;84.10;;;12.17;66.80;100616.34;4999519;28;20262;-76
2023/05/06 04:53:46;;;;;;;12.35;8.93;;;12.80;84.00;;;12.23;66.91;100623.50;4991823;28;20057;-75
2023/05/06 04:56:14;;;;;;;15.25;8.90;;;12.80;83.90;;;12.30;66.94;100616.25;4991341;28;20141;-75
2023/05/06 04:58:41;;;;;;;12.13;8.60;;;12.90;84.10;;;12.39;67.04;100624.78;4991807;28;20123;-77
2023/05/06 05:01:11;;;;;;;11.68;8.60;;;13.00;83.90;;;12.51;66.95;100623.06;5003711;28;20050;-74
2023/05/06 05:03:38;;;;;;;11.07;7.88;;;13.10;83.90;;;12.61;66.87;100633.25;4991867;28;20111;-75
2023/05/06 05:06:07;;;;;;;12.70;7.90;;;13.20;83.70;;;12.72;66.89;100631.69;5006516;28;20088;-75
2023/05/06 05:08:34;;;;;;;11.40;7.50;;;13.30;84.10;;;12.82;66.96;100632.81;5009671;28;20053;-76
2023/05/06 05:11:02;;;;;;;10.32;7.93;;;13.40;84.30;;;12.94;67.29;100632.09;4988614;28;20053;-76
2023/05/06 05:13:31;;;;;;;13.73;10.20;;;13.60;84.60;;;13.05;66.91;100629.50;4991229;28;20061;-75
2023/05/06 05:15:59;;;;;;;14.88;10.60;;;13.70;84.30;;;13.18;66.58;100628.53;4989233;28;20747;-76
2023/05/06 05:18:31;;;;;;;14.48;9.88;;;13.80;83.70;;;13.27;66.54;100632.53;4990884;28;20108;-74
2023/05/06 05:21:05;;;;;;;13.20;10.50;;;13.90;83.90;;;13.35;66.86;100629.56;5004272;28;20100;-75
2023/05/06 05:23:34;;;;;;;15.27;10.90;;;13.90;84.30;;;13.46;66.67;100629.84;4985614;28;20120;-75
2023/05/06 05:26:01;;;;;;;13.43;10.38;;;14.00;84.00;;;13.55;66.52;100636.53;5007863;28;20084;-75
2023/05/06 05:28:29;;;;;;;13.48;9.77;;;14.10;83.80;;;13.64;66.56;100635.19;5005768;28;20050;-76
2023/05/06 05:31:02;;;;;;;12.75;9.30;;;14.20;83.90;;;13.75;66.80;100639.75;4990442;28;20042;-76
2023/05/06 05:33:36;;;;;;;13.18;9.75;;;14.30;84.10;;;13.85;66.91;100640.03;4991423;28;20136;-75
2023/05/06 05:36:07;;;;;;;14.98;10.82;;;14.40;84.30;;;13.95;66.93;100639.47;4989796;28;20050;-75
2023/05/06 05:38:35;;;;;;;14.50;10.63;;;14.50;84.50;;;14.02;67.01;100645.56;4991212;28;20056;-76
2023/05/06 05:41:03;;;;;;;15.63;10.82;;;14.60;84.30;;;14.12;67.10;100642.31;5008180;28;20038;-76
2023/05/06 05:43:31;;;;;;;18.00;11.57;;;14.70;84.40;;;14.21;66.78;100642.81;4989010;28;20125;-76
2023/05/06 05:46:00;;;;;;;17.17;11.93;;;14.80;83.90;;;14.31;66.24;100645.75;4990851;28;20069;-76
2023/05/06 05:48:32;;;;;;;19.40;13.43;;;14.90;83.90;;;14.40;66.38;100639.81;4990668;28;20803;-77
2023/05/06 05:51:02;;;;;;;19.15;12.73;;;15.00;83.60;;;14.51;66.18;100654.31;4999887;28;20069;-76
2023/05/06 05:53:30;;;;;;;19.60;12.48;;;15.10;83.50;;;14.58;66.52;100654.19;4984034;28;20069;-76
2023/05/06 05:55:57;;;;;;;18.00;12.93;;;15.20;83.80;;;14.67;66.72;100658.16;4988721;28;20065;-76
2023/05/06 05:58:25;;;;;;;19.30;12.45;;;15.30;83.70;;;14.77;66.77;100655.69;4989718;28;20498;-76
2023/05/06 06:00:54;;;;;;;19.48;12.70;;;15.40;84.10;;;14.88;67.65;100654.88;4990612;28;20449;-76
2023/05/06 06:03:21;;;;;;;15.43;11.60;;;15.40;84.90;;;14.97;67.95;100657.19;4991120;28;20461;-76
2023/05/06 06:05:51;;;;;;;19.73;13.23;;;15.60;84.90;;;15.09;67.76;100660.69;5008403;28;20052;-76
2023/05/06 06:08:19;;;;;;;19.27;13.23;;;15.70;84.90;;;15.19;67.95;100664.41;4993331;28;20076;-75
2023/05/06 06:10:48;;;;;;;19.33;11.85;;;15.80;85.10;;;15.31;68.89;100663.56;4996424;28;20053;-76
2023/05/06 06:13:20;;;;;;;15.05;11.48;;;15.90;86.10;;;15.45;69.30;100664.94;4992674;28;20058;-76
2023/05/06 06:15:47;;;;;;;23.48;15.82;;;16.00;86.10;;;15.57;69.33;100659.53;4990021;28;20049;-76
2023/05/06 06:18:15;;;;;;;23.05;15.40;;;16.20;86.00;;;15.69;70.05;100655.75;4988537;28;20494;-76
2023/05/06 06:20:43;;;;;;;20.85;14.95;;;16.30;87.00;;;15.84;69.94;100667.84;5008495;28;20068;-76
2023/05/06 06:23:12;;;;;;;28.02;17.98;;;16.50;86.60;;;15.99;70.46;100657.38;4989737;28;20050;-76
2023/05/06 06:25:40;;;;;;;25.40;16.92;;;16.60;87.00;;;16.12;69.74;100656.25;4986982;28;20054;-76
2023/05/06 06:28:07;;;;;;;22.88;16.65;;;16.80;86.10;;;16.24;69.45;100667.75;4988213;28;20062;-76
2023/05/06 06:30:37;;;;;;;24.80;17.23;;;16.90;85.70;;;16.35;69.49;100664.19;5008328;28;20057;-76
2023/05/06 06:33:04;;;;;;;26.55;16.98;;;17.00;86.00;;;16.42;68.65;100662.13;4990385;28;20228;-76
2023/05/06 06:35:31;;;;;;;26.83;17.25;;;17.10;84.90;;;16.55;68.80;100666.38;4988719;28;20123;-76
2023/05/06 06:37:59;;;;;;;25.23;16.15;;;17.20;85.20;;;16.68;68.87;100663.31;4987629;28;20141;-77
2023/05/06 06:40:27;;;;;;;27.70;17.13;;;17.40;85.10;;;16.81;68.41;100656.81;4989616;28;20553;-78
2023/05/06 06:42:55;;;;;;;24.48;16.00;;;17.50;84.50;;;16.92;67.40;100666.66;5008036;28;20053;-77
2023/05/06 06:45:40;;;;;;;22.88;14.73;;;17.60;83.40;;;16.93;66.48;100660.25;5007881;28;20438;-77
2023/05/06 06:48:07;;;;;;;27.77;15.25;;;17.70;82.70;;;17.04;66.61;100660.38;5008304;28;20828;-77
2023/05/06 06:50:35;;;;;;;24.05;15.38;;;17.70;82.70;;;17.15;66.45;100667.53;5008301;28;20117;-76
2023/05/06 06:53:02;;;;;;;21.75;14.00;;;17.90;82.70;;;17.18;65.84;100662.44;5047999;22;20056;-87
2023/05/06 06:55:30;;;;;;;18.15;12.88;;;17.90;82.10;;;17.28;66.30;100663.66;5065057;28;20047;-87
2023/05/06 06:57:58;;;;;;;20.88;13.35;;;18.00;82.60;;;17.39;65.75;100660.81;5065613;28;20048;-87
2023/05/06 07:00:25;;;;;;;19.13;13.15;;;18.10;81.80;;;17.46;65.46;100669.50;5066448;28;20508;-87
2023/05/06 07:02:52;;;;;;;20.05;12.18;;;18.20;81.50;;;17.55;64.75;100660.97;5066757;28;20078;-88
2023/05/06 07:05:20;;;;;;;18.10;12.52;;;18.30;80.60;;;17.61;63.59;100666.16;5063021;28;20755;-87
2023/05/06 07:07:47;;;;;;;18.48;11.75;;;18.30;79.40;;;17.63;64.58;100674.03;5065026;28;20044;-86
2023/05/06 07:10:14;;;;;;;17.67;11.32;;;18.40;80.60;;;17.70;64.46;100664.66;5062535;28;20174;-85
2023/05/06 07:12:43;;;;;;;18.13;11.75;;;18.40;80.20;;;17.81;63.63;100665.59;5067618;28;20049;-85
2023/05/06 07:15:11;;;;;;;16.55;11.50;;;18.50;79.60;;;17.90;63.93;100665.97;5070054;28;20037;-85
2023/05/06 07:17:38;;;;;;;17.67;11.27;;;18.60;79.80;;;17.99;63.54;100672.53;5070815;28;20048;-88
2023/05/06 07:20:07;;;;;;;17.02;10.75;;;18.70;79.20;;;18.02;63.56;100667.44;5070221;28;20050;-87
2023/05/06 07:22:34;;;;;;;16.65;10.48;;;18.80;79.40;;;18.13;63.85;100667.53;5067327;28;20143;-86
2023/05/06 07:25:02;;;;;;;16.08;10.40;;;18.80;79.80;;;18.21;62.86;100669.78;5069853;28;20093;-83
2023/05/06 07:27:30;;;;;;;13.95;10.50;;;18.90;78.50;;;18.27;62.64;100660.66;5069258;28;20049;-87
2023/05/06 07:29:59;;;;;;;16.48;10.43;;;19.00;78.70;;;18.30;63.04;100667.41;5070420;28;20110;-85
2023/05/06 07:32:26;;;;;;;15.60;10.00;;;19.10;79.20;;;18.33;62.50;100664.19;5067741;28;20690;-84
2023/05/06 07:34:53;;;;;;;17.92;9.75;;;19.10;78.20;;;18.36;62.40;100666.41;5064963;28;20045;-82
2023/05/06 07:37:20;;;;;;;13.55;8.70;;;19.10;78.30;;;18.43;62.87;100667.78;5066749;28;20903;-84
2023/05/06 07:39:47;;;;;;;14.95;8.85;;;19.20;78.50;;;18.53;61.69;100667.88;5065072;28;20094;-83
2023/05/06 07:42:15;;;;;;;12.50;7.00;;;19.30;77.30;;;18.52;60.65;100665.44;5049820;28;20037;-80
2023/05/06 07:44:42;;;;;;;12.77;6.88;;;19.30;76.60;;;18.57;60.33;100665.47;5050387;28;20052;-82
2023/05/06 07:47:11;;;;;;;11.65;7.57;;;19.30;75.80;;;18.56;59.26;100665.72;5065919;28;20106;-78
2023/05/06 07:49:38;;;;;;;10.05;6.30;;;19.30;74.90;;;18.66;60.41;100660.41;5071698;28;20496;-80
2023/05/06 07:52:05;;;;;;;9.40;6.20;;;19.40;75.70;;;18.74;59.97;100662.66;5064845;28;20048;-79
2023/05/06 07:54:33;;;;;;;9.68;5.57;;;19.50;75.70;;;18.72;59.49;100665.59;5065796;28;20097;-83
2023/05/06 07:57:01;;;;;;;12.50;6.40;;;19.50;75.00;;;18.80;59.55;100672.41;5065753;28;20037;-86
2023/05/06 07:59:28;;;;;;;14.13;7.03;;;19.50;75.00;;;18.87;60.01;100664.88;5069285;28;20122;-85
2023/05/06 08:01:55;;;;;;;15.75;7.28;;;19.60;75.20;;;18.93;60.33;100669.22;5066641;28;20090;-84
2023/05/06 08:04:24;;;;;;;11.30;7.15;;;19.70;76.00;;;18.91;59.01;100673.28;5066330;28;20124;-85
2023/05/06 08:06:52;;;;;;;12.57;7.25;;;19.70;74.30;;;18.93;60.57;100677.34;5070044;28;20048;-83
2023/05/06 08:09:19;;;;;;;13.48;6.78;;;19.70;75.80;;;19.01;61.53;100679.56;5052164;28;20067;-87
2023/05/06 08:11:46;;;;;;;14.57;6.60;;;19.80;76.80;;;19.08;60.06;100684.75;5067170;28;20037;-78
2023/05/06 08:14:14;;;;;;;12.23;6.30;;;19.80;75.20;;;19.16;60.37;100683.41;5067840;28;20059;-78
2023/05/06 08:16:41;;;;;;;15.93;6.68;;;19.90;76.00;;;19.18;59.25;100673.13;5069690;28;20823;-78
2023/05/06 08:19:08;;;;;;;11.52;7.05;;;19.90;74.50;;;19.21;59.55;100684.25;5068134;28;20059;-79
2023/05/06 08:21:37;;;;;;;12.23;6.82;;;20.00;75.20;;;19.23;57.73;100687.53;5067513;28;20155;-77
2023/05/06 08:24:04;;;;;;;13.55;7.25;;;20.00;72.70;;;19.25;58.84;100685.34;5067995;28;20072;-76
2023/05/06 08:26:32;;;;;;;12.38;6.10;;;20.00;73.80;;;19.30;59.32;100693.50;5068847;28;20102;-76
2023/05/06 08:28:59;;;;;;;9.82;6.00;;;20.00;74.80;;;19.32;57.66;100687.00;5062508;28;20044;-77
2023/05/06 08:31:26;;;;;;;11.18;5.32;;;20.10;73.30;;;19.24;57.48;100691.84;5066358;28;20033;-77
2023/05/06 08:33:54;;;;;;;7.40;4.00;;;20.00;72.30;;;19.28;58.11;100692.16;5069846;28;20044;-76
2023/05/06 08:36:21;;;;;;;6.05;3.30;;;20.10;73.00;;;19.27;57.67;100693.19;5062855;28;20041;-76
2023/05/06 08:38:50;;;;;;;9.50;3.70;;;20.00;72.70;;;19.24;56.29;100694.56;5063607;28;20037;-77
2023/05/06 08:41:20;;;;;;;5.57;3.33;;;20.00;71.20;;;19.28;58.20;100695.66;5060469;28;20041;-77
2023/05/06 08:43:49;;;;;;;8.18;3.35;;;20.00;73.30;;;19.33;57.50;100694.88;5058902;28;20052;-76
2023/05/06 08:46:17;;;;;;;5.80;3.13;;;20.10;72.10;;;19.34;56.84;100692.97;5060652;28;20382;-77
2023/05/06 08:48:45;;;;;;;6.00;3.20;;;20.10;71.50;;;19.27;56.93;100694.00;5065497;28;20048;-77
2023/05/06 08:51:15;;;;;;;10.30;3.70;;;20.10;72.10;;;19.25;58.26;100693.47;5065234;28;20044;-77
2023/05/06 08:53:49;;;;;;;7.07;3.10;;;20.10;73.10;;;19.28;56.42;100692.16;5063920;28;20178;-77
2023/05/06 08:56:20;;;;;;;5.82;3.28;;;20.10;71.40;;;19.29;57.63;100689.16;5062620;28;20667;-77
2023/05/06 08:58:50;;;;;;;11.90;3.70;;;20.10;72.40;;;19.30;56.63;100689.97;5065492;28;20133;-76
2023/05/06 09:01:17;;;;;;;55.72;7.30;;;20.10;71.20;;;19.25;56.06;100682.66;5059530;28;20051;-76
2023/05/06 09:03:45;;;;;;;6.32;2.83;;;20.10;70.90;;;19.26;56.85;100681.56;5067308;28;20040;-76
2023/05/06 09:06:12;;;;;;;6.18;2.38;;;20.10;71.70;;;19.26;56.12;100683.47;5061040;28;20112;-76
2023/05/06 09:08:40;;;;;;;5.82;3.67;;;20.10;70.90;;;19.28;56.86;100687.56;5044717;28;20769;-76
2023/05/06 09:11:25;;;;;;;14.77;3.88;;;20.10;71.50;;;19.24;56.16;100681.03;5065318;28;21784;-77
2023/05/06 09:14:09;;;;;;;6.57;3.22;;;20.10;71.20;;;19.21;55.29;100676.13;5065842;28;20177;-76
2023/05/06 09:16:44;;;;;;;6.90;3.33;;;20.00;70.00;;;19.23;55.40;100681.31;5062020;28;20044;-76
2023/05/06 09:19:12;;;;;;;6.13;2.90;;;20.00;70.00;;;19.25;56.08;100679.13;5062211;28;20068;-77
2023/05/06 09:21:42;;;;;;;3.97;2.00;;;20.00;70.90;;;19.23;55.44;100668.59;5063736;28;20043;-76
2023/05/06 09:24:12;;;;;;;5.95;2.40;;;20.00;69.90;;;19.23;56.46;100667.78;5047295;28;20059;-76
2023/05/06 09:26:44;;;;;;;6.03;2.42;;;20.00;71.10;;;19.27;56.86;100671.56;5061165;28;20069;-76
2023/05/06 09:29:11;;;;;;;16.90;3.35;;;20.10;71.30;;;19.27;56.63;100671.56;5063043;28;20226;-77
2023/05/06 09:31:42;;;;;;;6.25;2.58;;;20.10;71.10;;;19.24;56.10;100666.69;5060453;28;20484;-77
2023/05/06 09:34:10;;;;;;;7.55;2.40;;;20.00;70.50;;;19.15;54.77;100660.97;5066559;28;20377;-77
2023/05/06 09:36:38;;;;;;;5.22;2.10;;;20.00;68.90;;;19.16;54.77;100659.09;5065555;28;20568;-76
2023/05/06 09:39:05;;;;;;;11.43;2.15;;;20.00;69.00;;;19.25;56.01;100660.22;5065557;28;20048;-76
2023/05/06 09:41:33;;;;;;;6.13;2.28;;;20.00;70.30;;;19.28;54.90;100657.81;5055987;28;20495;-77
2023/05/06 09:44:01;;;;;;;6.20;2.60;;;20.10;69.30;;;19.30;55.67;100666.44;5060140;28;20497;-76
2023/05/06 09:46:30;;;;;;;6.55;2.17;;;20.10;69.90;;;19.35;54.25;100662.94;5067905;28;20075;-77
2023/05/06 09:48:57;;;;;;;6.63;1.95;;;20.10;68.10;;;19.26;50.14;100651.00;5068557;28;20121;-77
2023/05/06 09:51:26;;;;;;;3.75;1.50;;;20.00;63.70;;;19.25;51.32;100654.81;5067490;28;20412;-77
2023/05/06 09:53:56;;;;;;;4.72;1.70;;;20.10;65.40;;;19.26;52.37;100651.00;5061776;28;20068;-77
2023/05/06 09:56:24;;;;;;;3.83;1.55;;;20.10;66.20;;;19.26;53.29;100651.81;5065022;28;20036;-76
2023/05/06 09:58:54;;;;;;;3.88;1.50;;;20.10;67.60;;;19.39;54.04;100647.03;5063852;28;20576;-76
2023/05/06 10:01:24;;;;;;;5.07;1.80;;;20.10;68.20;;;19.47;53.55;100638.38;5063199;28;20040;-77
2023/05/06 10:03:54;;;;;;;4.85;1.75;;;20.20;67.30;;;19.59;54.38;100643.56;5047499;28;20056;-77
2023/05/06 10:06:24;;;;;;;7.07;1.98;;;20.30;68.40;;;19.69;53.07;100636.31;5064239;28;20094;-77
2023/05/06 10:08:52;;;;;;;34.90;2.38;;;20.50;66.80;;;19.73;51.45;100634.69;5063914;28;20559;-77
2023/05/06 10:11:21;;;;;;;138.35;9.60;;;20.50;64.40;;;19.70;50.88;100632.50;5067588;28;20504;-76
2023/05/06 10:13:50;;;;;;;22.67;2.55;;;20.50;64.20;;;19.67;50.47;100630.34;5066468;28;20147;-77
2023/05/06 10:16:18;;;;;;;8.95;2.33;;;20.50;63.90;;;19.73;51.22;100631.19;5049503;28;20098;-77